sensor_id;sensor_type;location;lat;lon;timestamp;pressure;altitude;pressure_sealevel;temperature;humidity
52469;BME280;38381;53.688;10.776;2023-07-02T00:04:08;99909.94;;;15.61;90.62
52469;BME280;38381;53.688;10.776;2023-07-02T00:09:10;99914.69;;;15.46;89.89
52469;BME280;38381;53.688;10.776;2023-07-02T00:14:11;99913.63;;;15.52;89.99
52469;BME280;38381;53.688;10.776;2023-07-02T00:19:13;99911.41;;;15.38;91.31
52469;BME280;38381;53.688;10.776;2023-07-02T00:24:15;99912.94;;;15.45;90.71
52469;BME280;38381;53.688;10.776;2023-07-02T00:29:16;99897.44;;;15.39;90.40
52469;BME280;38381;53.688;10.776;2023-07-02T00:34:18;99909.69;;;15.37;89.79
52469;BME280;38381;53.688;10.776;2023-07-02T00:39:18;99904.97;;;15.19;90.02
52469;BME280;38381;53.688;10.776;2023-07-02T00:44:18;99917.28;;;15.14;90.54
52469;BME280;38381;53.688;10.776;2023-07-02T00:49:19;99908.81;;;15.05;90.17
52469;BME280;38381;53.688;10.776;2023-07-02T00:54:20;99917.03;;;14.88;91.63
52469;BME280;38381;53.688;10.776;2023-07-02T00:59:20;99924.50;;;15.04;90.94
52469;BME280;38381;53.688;10.776;2023-07-02T01:04:21;99919.56;;;14.93;91.17
52469;BME280;38381;53.688;10.776;2023-07-02T01:09:27;99916.56;;;14.73;92.24
52469;BME280;38381;53.688;10.776;2023-07-02T01:14:41;99907.03;;;14.70;92.26
52469;BME280;38381;53.688;10.776;2023-07-02T01:19:46;99900.91;;;14.73;92.85
52469;BME280;38381;53.688;10.776;2023-07-02T01:24:54;99894.13;;;14.65;92.82
52469;BME280;38381;53.688;10.776;2023-07-02T01:29:55;99892.19;;;14.72;92.24
52469;BME280;38381;53.688;10.776;2023-07-02T01:34:55;99880.91;;;14.72;92.44
52469;BME280;38381;53.688;10.776;2023-07-02T01:39:56;99880.09;;;14.69;92.20
52469;BME280;38381;53.688;10.776;2023-07-02T01:44:56;99884.50;;;14.67;93.09
52469;BME280;38381;53.688;10.776;2023-07-02T01:49:56;99889.75;;;14.66;93.27
52469;BME280;38381;53.688;10.776;2023-07-02T01:54:57;99896.59;;;14.70;93.23
52469;BME280;38381;53.688;10.776;2023-07-02T01:59:57;99889.66;;;14.71;92.91
52469;BME280;38381;53.688;10.776;2023-07-02T02:04:58;99910.59;;;14.67;92.81
52469;BME280;38381;53.688;10.776;2023-07-02T02:09:58;99906.06;;;14.74;92.41
52469;BME280;38381;53.688;10.776;2023-07-02T02:14:59;99887.94;;;14.68;92.25
52469;BME280;38381;53.688;10.776;2023-07-02T02:19:59;99889.66;;;14.71;92.49
52469;BME280;38381;53.688;10.776;2023-07-02T02:24:59;99893.47;;;14.56;92.90
52469;BME280;38381;53.688;10.776;2023-07-02T02:30:00;99885.41;;;14.66;92.93
52469;BME280;38381;53.688;10.776;2023-07-02T02:35:00;99895.59;;;14.76;92.43
52469;BME280;38381;53.688;10.776;2023-07-02T02:40:01;99900.09;;;14.71;92.75
52469;BME280;38381;53.688;10.776;2023-07-02T02:45:02;99893.09;;;14.73;92.58
52469;BME280;38381;53.688;10.776;2023-07-02T02:50:02;99901.28;;;14.57;93.36
52469;BME280;38381;53.688;10.776;2023-07-02T02:55:05;99901.22;;;14.60;93.36
52469;BME280;38381;53.688;10.776;2023-07-02T03:00:06;99907.28;;;14.61;93.35
52469;BME280;38381;53.688;10.776;2023-07-02T03:05:07;99920.06;;;14.72;92.94
52469;BME280;38381;53.688;10.776;2023-07-02T03:10:08;99927.84;;;14.75;92.74
52469;BME280;38381;53.688;10.776;2023-07-02T03:15:09;99916.72;;;14.66;92.68
52469;BME280;38381;53.688;10.776;2023-07-02T03:20:10;99918.44;;;14.66;93.14
52469;BME280;38381;53.688;10.776;2023-07-02T03:25:11;99923.91;;;14.55;93.42
52469;BME280;38381;53.688;10.776;2023-07-02T03:30:11;99910.44;;;14.74;92.34
52469;BME280;38381;53.688;10.776;2023-07-02T03:35:11;99920.84;;;14.75;92.02
52469;BME280;38381;53.688;10.776;2023-07-02T03:40:12;99921.84;;;14.69;91.75
52469;BME280;38381;53.688;10.776;2023-07-02T03:45:12;99920.38;;;14.58;92.61
52469;BME280;38381;53.688;10.776;2023-07-02T03:50:13;99916.00;;;14.60;92.71
52469;BME280;38381;53.688;10.776;2023-07-02T03:55:13;99914.53;;;14.46;92.93
52469;BME280;38381;53.688;10.776;2023-07-02T04:00:14;99911.66;;;14.60;92.44
52469;BME280;38381;53.688;10.776;2023-07-02T04:05:14;99911.50;;;14.66;91.91
52469;BME280;38381;53.688;10.776;2023-07-02T04:10:15;99902.03;;;14.62;92.30
52469;BME280;38381;53.688;10.776;2023-07-02T04:15:15;99907.13;;;14.67;91.66
52469;BME280;38381;53.688;10.776;2023-07-02T04:20:16;99917.31;;;14.78;91.64
52469;BME280;38381;53.688;10.776;2023-07-02T04:25:16;99928.16;;;14.97;90.45
52469;BME280;38381;53.688;10.776;2023-07-02T04:30:17;99928.63;;;15.13;89.61
52469;BME280;38381;53.688;10.776;2023-07-02T04:35:18;99935.56;;;15.14;89.04
52469;BME280;38381;53.688;10.776;2023-07-02T04:40:18;99935.91;;;15.34;88.82
52469;BME280;38381;53.688;10.776;2023-07-02T04:45:19;99939.66;;;15.24;88.42
52469;BME280;38381;53.688;10.776;2023-07-02T04:50:20;99932.50;;;15.32;88.49
52469;BME280;38381;53.688;10.776;2023-07-02T04:55:20;99926.34;;;15.66;86.79
52469;BME280;38381;53.688;10.776;2023-07-02T05:00:21;99924.53;;;15.99;84.97
52469;BME280;38381;53.688;10.776;2023-07-02T05:05:22;99932.47;;;16.26;82.75
52469;BME280;38381;53.688;10.776;2023-07-02T05:10:22;99938.66;;;16.23;82.13
52469;BME280;38381;53.688;10.776;2023-07-02T05:15:24;99932.00;;;16.69;81.34
52469;BME280;38381;53.688;10.776;2023-07-02T05:20:24;99935.31;;;16.75;80.62
52469;BME280;38381;53.688;10.776;2023-07-02T05:25:24;99931.31;;;16.91;79.19
52469;BME280;38381;53.688;10.776;2023-07-02T05:30:25;99931.91;;;16.99;78.45
52469;BME280;38381;53.688;10.776;2023-07-02T05:35:25;99929.31;;;16.99;77.96
52469;BME280;38381;53.688;10.776;2023-07-02T05:40:26;99931.25;;;17.44;76.89
52469;BME280;38381;53.688;10.776;2023-07-02T05:45:26;99933.72;;;17.49;75.95
52469;BME280;38381;53.688;10.776;2023-07-02T05:50:27;99932.38;;;17.62;75.50
52469;BME280;38381;53.688;10.776;2023-07-02T05:55:28;99940.00;;;17.94;74.09
52469;BME280;38381;53.688;10.776;2023-07-02T06:00:31;99941.84;;;18.15;72.52
52469;BME280;38381;53.688;10.776;2023-07-02T06:05:31;99944.28;;;18.20;71.80
52469;BME280;38381;53.688;10.776;2023-07-02T06:10:32;99955.34;;;18.28;71.23
52469;BME280;38381;53.688;10.776;2023-07-02T06:15:32;99951.53;;;18.13;69.82
52469;BME280;38381;53.688;10.776;2023-07-02T06:20:33;99950.50;;;17.94;70.00
52469;BME280;38381;53.688;10.776;2023-07-02T06:25:33;99956.31;;;18.25;70.44
52469;BME280;38381;53.688;10.776;2023-07-02T06:30:33;99951.88;;;18.04;69.21
52469;BME280;38381;53.688;10.776;2023-07-02T06:35:34;99951.88;;;18.27;67.30
52469;BME280;38381;53.688;10.776;2023-07-02T06:40:34;99964.84;;;18.54;67.01
52469;BME280;38381;53.688;10.776;2023-07-02T06:45:35;99962.50;;;18.46;66.50
52469;BME280;38381;53.688;10.776;2023-07-02T06:50:35;99953.25;;;18.82;65.31
52469;BME280;38381;53.688;10.776;2023-07-02T06:55:35;99957.75;;;19.00;64.26
52469;BME280;38381;53.688;10.776;2023-07-02T07:00:36;99949.13;;;18.75;62.38
52469;BME280;38381;53.688;10.776;2023-07-02T07:05:36;99956.97;;;19.19;63.46
52469;BME280;38381;53.688;10.776;2023-07-02T07:10:37;99953.09;;;19.07;62.78
52469;BME280;38381;53.688;10.776;2023-07-02T07:15:38;99960.94;;;19.29;61.71
52469;BME280;38381;53.688;10.776;2023-07-02T07:20:39;99963.03;;;19.41;62.46
52469;BME280;38381;53.688;10.776;2023-07-02T07:25:40;99965.03;;;19.36;60.53
52469;BME280;38381;53.688;10.776;2023-07-02T07:30:43;99970.41;;;19.54;61.07
52469;BME280;38381;53.688;10.776;2023-07-02T07:35:44;99982.47;;;19.17;60.16
52469;BME280;38381;53.688;10.776;2023-07-02T07:40:45;99985.97;;;18.73;59.29
52469;BME280;38381;53.688;10.776;2023-07-02T07:45:45;99988.00;;;18.88;58.22
52469;BME280;38381;53.688;10.776;2023-07-02T07:50:45;99986.03;;;18.72;59.30
52469;BME280;38381;53.688;10.776;2023-07-02T07:55:46;100010.03;;;18.62;60.65
52469;BME280;38381;53.688;10.776;2023-07-02T08:00:46;100019.75;;;18.37;60.28
52469;BME280;38381;53.688;10.776;2023-07-02T08:05:47;100025.78;;;17.92;60.40
52469;BME280;38381;53.688;10.776;2023-07-02T08:10:47;100041.06;;;17.79;61.65
52469;BME280;38381;53.688;10.776;2023-07-02T08:15:50;100029.97;;;17.70;62.89
52469;BME280;38381;53.688;10.776;2023-07-02T08:20:50;100039.66;;;17.68;62.90
52469;BME280;38381;53.688;10.776;2023-07-02T08:25:50;100033.56;;;17.68;62.58
52469;BME280;38381;53.688;10.776;2023-07-02T08:30:51;100030.38;;;17.85;62.12
52469;BME280;38381;53.688;10.776;2023-07-02T08:35:51;100029.59;;;17.83;61.92
52469;BME280;38381;53.688;10.776;2023-07-02T08:40:52;100029.03;;;17.98;62.26
52469;BME280;38381;53.688;10.776;2023-07-02T08:45:53;100024.88;;;18.16;61.09
52469;BME280;38381;53.688;10.776;2023-07-02T08:50:53;100022.03;;;18.46;59.14
52469;BME280;38381;53.688;10.776;2023-07-02T08:55:54;100011.19;;;18.55;56.26
52469;BME280;38381;53.688;10.776;2023-07-02T09:01:11;100040.00;;;18.57;55.62
52469;BME280;38381;53.688;10.776;2023-07-02T09:06:12;100043.63;;;19.00;55.54
52469;BME280;38381;53.688;10.776;2023-07-02T09:11:14;100055.41;;;18.66;55.15
52469;BME280;38381;53.688;10.776;2023-07-02T09:16:29;100069.41;;;18.19;57.61
52469;BME280;38381;53.688;10.776;2023-07-02T09:21:47;100069.09;;;18.03;56.58
52469;BME280;38381;53.688;10.776;2023-07-02T09:26:49;100079.31;;;18.11;56.35
52469;BME280;38381;53.688;10.776;2023-07-02T09:31:50;100069.19;;;18.25;56.57
52469;BME280;38381;53.688;10.776;2023-07-02T09:36:51;100054.06;;;18.32;56.97
52469;BME280;38381;53.688;10.776;2023-07-02T09:41:51;100053.75;;;18.63;56.05
52469;BME280;38381;53.688;10.776;2023-07-02T09:47:05;100057.09;;;18.90;55.47
52469;BME280;38381;53.688;10.776;2023-07-02T09:52:07;100060.50;;;19.16;54.81
52469;BME280;38381;53.688;10.776;2023-07-02T09:57:08;100050.28;;;19.08;53.01
52469;BME280;38381;53.688;10.776;2023-07-02T10:02:09;100073.97;;;18.61;54.19
52469;BME280;38381;53.688;10.776;2023-07-02T10:07:11;100106.16;;;18.19;55.49
52469;BME280;38381;53.688;10.776;2023-07-02T10:12:23;100131.41;;;17.70;60.68
52469;BME280;38381;53.688;10.776;2023-07-02T10:17:32;100132.81;;;17.54;59.86
52469;BME280;38381;53.688;10.776;2023-07-02T10:22:50;100127.41;;;17.58;59.95
52469;BME280;38381;53.688;10.776;2023-07-02T10:27:53;100125.03;;;17.50;58.58
52469;BME280;38381;53.688;10.776;2023-07-02T10:32:53;100133.63;;;17.56;58.56
52469;BME280;38381;53.688;10.776;2023-07-02T10:37:54;100110.00;;;18.09;58.49
52469;BME280;38381;53.688;10.776;2023-07-02T10:42:55;100116.22;;;18.55;57.14
52469;BME280;38381;53.688;10.776;2023-07-02T10:47:55;100104.00;;;18.54;57.11
52469;BME280;38381;53.688;10.776;2023-07-02T10:52:56;100101.84;;;18.89;54.87
52469;BME280;38381;53.688;10.776;2023-07-02T10:58:04;100100.28;;;19.29;54.72
52469;BME280;38381;53.688;10.776;2023-07-02T11:03:05;100095.31;;;19.43;52.83
52469;BME280;38381;53.688;10.776;2023-07-02T11:08:16;100090.75;;;19.69;51.70
52469;BME280;38381;53.688;10.776;2023-07-02T11:13:19;100086.19;;;19.95;52.22
52469;BME280;38381;53.688;10.776;2023-07-02T11:18:19;100098.44;;;19.96;51.31
52469;BME280;38381;53.688;10.776;2023-07-02T11:23:23;100101.84;;;19.98;49.37
52469;BME280;38381;53.688;10.776;2023-07-02T11:28:24;100112.03;;;20.05;48.41
52469;BME280;38381;53.688;10.776;2023-07-02T11:33:39;100113.75;;;20.06;48.55
52469;BME280;38381;53.688;10.776;2023-07-02T11:38:40;100126.22;;;20.22;49.77
52469;BME280;38381;53.688;10.776;2023-07-02T11:43:40;100128.69;;;20.06;48.48
52469;BME280;38381;53.688;10.776;2023-07-02T11:48:41;100145.47;;;20.03;49.48
52469;BME280;38381;53.688;10.776;2023-07-02T11:53:41;100133.16;;;20.24;49.15
52469;BME280;38381;53.688;10.776;2023-07-02T11:58:42;100140.88;;;20.08;48.68
52469;BME280;38381;53.688;10.776;2023-07-02T12:03:44;100160.88;;;20.13;47.81
52469;BME280;38381;53.688;10.776;2023-07-02T12:08:44;100198.44;;;19.52;49.94
52469;BME280;38381;53.688;10.776;2023-07-02T12:13:45;100208.44;;;18.71;56.28
52469;BME280;38381;53.688;10.776;2023-07-02T12:18:45;100186.81;;;18.64;58.04
52469;BME280;38381;53.688;10.776;2023-07-02T12:23:45;100173.31;;;18.74;58.66
52469;BME280;38381;53.688;10.776;2023-07-02T12:28:46;100170.75;;;18.97;57.07
52469;BME280;38381;53.688;10.776;2023-07-02T12:33:46;100169.00;;;19.20;57.20
52469;BME280;38381;53.688;10.776;2023-07-02T12:38:47;100174.94;;;19.25;57.34
52469;BME280;38381;53.688;10.776;2023-07-02T12:43:47;100177.69;;;19.44;56.06
52469;BME280;38381;53.688;10.776;2023-07-02T12:48:48;100209.47;;;18.92;56.22
52469;BME280;38381;53.688;10.776;2023-07-02T12:53:48;100225.31;;;18.64;60.67
52469;BME280;38381;53.688;10.776;2023-07-02T12:58:48;100218.38;;;18.63;60.16
52469;BME280;38381;53.688;10.776;2023-07-02T13:03:49;100207.28;;;18.55;58.30
52469;BME280;38381;53.688;10.776;2023-07-02T13:08:50;100199.06;;;18.89;58.26
52469;BME280;38381;53.688;10.776;2023-07-02T13:13:50;100190.41;;;19.09;56.51
52469;BME280;38381;53.688;10.776;2023-07-02T13:18:51;100182.00;;;19.46;53.99
52469;BME280;38381;53.688;10.776;2023-07-02T13:23:52;100188.94;;;19.71;54.75
52469;BME280;38381;53.688;10.776;2023-07-02T13:28:53;100202.94;;;19.70;53.59
52469;BME280;38381;53.688;10.776;2023-07-02T13:33:53;100195.34;;;19.86;53.44
52469;BME280;38381;53.688;10.776;2023-07-02T13:38:55;100197.53;;;20.17;52.41
52469;BME280;38381;53.688;10.776;2023-07-02T13:43:56;100212.06;;;20.05;49.38
52469;BME280;38381;53.688;10.776;2023-07-02T13:48:56;100197.47;;;20.19;48.64
52469;BME280;38381;53.688;10.776;2023-07-02T13:53:57;100209.84;;;20.37;46.94
52469;BME280;38381;53.688;10.776;2023-07-02T14:03:58;100206.09;;;20.22;45.50
52469;BME280;38381;53.688;10.776;2023-07-02T14:08:58;100226.38;;;20.41;45.25
52469;BME280;38381;53.688;10.776;2023-07-02T14:13:59;100239.19;;;20.28;45.45
52469;BME280;38381;53.688;10.776;2023-07-02T14:18:59;100212.97;;;20.26;44.78
52469;BME280;38381;53.688;10.776;2023-07-02T14:24:00;100218.25;;;20.67;44.71
52469;BME280;38381;53.688;10.776;2023-07-02T14:29:00;100220.16;;;20.64;44.44
52469;BME280;38381;53.688;10.776;2023-07-02T14:34:01;100232.44;;;20.84;44.10
52469;BME280;38381;53.688;10.776;2023-07-02T14:39:01;100225.97;;;20.91;44.14
52469;BME280;38381;53.688;10.776;2023-07-02T14:44:03;100226.97;;;21.07;43.84
52469;BME280;38381;53.688;10.776;2023-07-02T14:49:03;100241.38;;;21.00;44.12
52469;BME280;38381;53.688;10.776;2023-07-02T14:54:04;100243.22;;;20.98;43.78
52469;BME280;38381;53.688;10.776;2023-07-02T14:59:06;100226.19;;;21.05;44.34
52469;BME280;38381;53.688;10.776;2023-07-02T15:04:07;100236.91;;;21.02;44.55
52469;BME280;38381;53.688;10.776;2023-07-02T15:09:07;100244.69;;;20.85;44.61
52469;BME280;38381;53.688;10.776;2023-07-02T15:14:07;100248.34;;;20.62;44.98
52469;BME280;38381;53.688;10.776;2023-07-02T15:19:08;100254.56;;;20.39;45.28
52469;BME280;38381;53.688;10.776;2023-07-02T15:24:09;100263.19;;;20.42;44.79
52469;BME280;38381;53.688;10.776;2023-07-02T15:29:12;100268.38;;;20.44;44.87
52469;BME280;38381;53.688;10.776;2023-07-02T15:34:12;100261.69;;;20.37;45.17
52469;BME280;38381;53.688;10.776;2023-07-02T15:39:19;100270.44;;;20.37;45.32
52469;BME280;38381;53.688;10.776;2023-07-02T15:44:22;100273.00;;;19.96;45.12
52469;BME280;38381;53.688;10.776;2023-07-02T15:49:24;100269.31;;;20.22;44.66
52469;BME280;38381;53.688;10.776;2023-07-02T15:54:25;100267.28;;;20.07;44.74
52469;BME280;38381;53.688;10.776;2023-07-02T15:59:25;100279.56;;;20.28;45.61
52469;BME280;38381;53.688;10.776;2023-07-02T16:04:26;100277.66;;;19.89;45.50
52469;BME280;38381;53.688;10.776;2023-07-02T16:09:26;100282.59;;;19.97;45.32
52469;BME280;38381;53.688;10.776;2023-07-02T16:14:27;100277.50;;;19.93;47.12
52469;BME280;38381;53.688;10.776;2023-07-02T16:19:27;100290.22;;;20.03;47.65
52469;BME280;38381;53.688;10.776;2023-07-02T16:24:32;100286.75;;;20.03;47.20
52469;BME280;38381;53.688;10.776;2023-07-02T16:29:33;100296.63;;;19.98;46.76
52469;BME280;38381;53.688;10.776;2023-07-02T16:34:33;100286.81;;;20.01;45.85
52469;BME280;38381;53.688;10.776;2023-07-02T16:39:34;100288.59;;;20.01;45.23
52469;BME280;38381;53.688;10.776;2023-07-02T16:44:34;100291.22;;;20.01;43.74
52469;BME280;38381;53.688;10.776;2023-07-02T16:49:37;100286.09;;;19.98;43.37
52469;BME280;38381;53.688;10.776;2023-07-02T16:54:38;100295.75;;;19.97;43.01
52469;BME280;38381;53.688;10.776;2023-07-02T16:59:39;100299.00;;;20.04;43.17
52469;BME280;38381;53.688;10.776;2023-07-02T17:04:39;100297.84;;;20.11;43.06
52469;BME280;38381;53.688;10.776;2023-07-02T17:09:40;100320.34;;;19.74;43.67
52469;BME280;38381;53.688;10.776;2023-07-02T17:14:45;100312.09;;;19.83;44.04
52469;BME280;38381;53.688;10.776;2023-07-02T17:19:50;100322.78;;;19.55;44.92
52469;BME280;38381;53.688;10.776;2023-07-02T17:24:51;100319.31;;;19.55;44.94
52469;BME280;38381;53.688;10.776;2023-07-02T17:29:58;100332.63;;;19.50;45.93
52469;BME280;38381;53.688;10.776;2023-07-02T17:34:59;100322.31;;;19.44;46.05
52469;BME280;38381;53.688;10.776;2023-07-02T17:39:59;100321.78;;;19.10;46.79
52469;BME280;38381;53.688;10.776;2023-07-02T17:45:00;100314.56;;;18.92;47.38
52469;BME280;38381;53.688;10.776;2023-07-02T17:50:01;100334.53;;;18.98;47.73
52469;BME280;38381;53.688;10.776;2023-07-02T17:55:01;100327.91;;;18.86;47.87
52469;BME280;38381;53.688;10.776;2023-07-02T18:00:02;100337.63;;;18.84;48.35
52469;BME280;38381;53.688;10.776;2023-07-02T18:05:02;100336.09;;;18.77;48.59
52469;BME280;38381;53.688;10.776;2023-07-02T18:10:03;100336.53;;;18.64;48.47
52469;BME280;38381;53.688;10.776;2023-07-02T18:15:04;100336.53;;;18.64;49.50
52469;BME280;38381;53.688;10.776;2023-07-02T18:20:05;100351.34;;;18.65;49.14
52469;BME280;38381;53.688;10.776;2023-07-02T18:25:06;100349.25;;;18.50;49.36
52469;BME280;38381;53.688;10.776;2023-07-02T18:30:07;100348.56;;;18.43;48.95
52469;BME280;38381;53.688;10.776;2023-07-02T18:35:08;100348.03;;;18.34;48.80
52469;BME280;38381;53.688;10.776;2023-07-02T18:40:09;100366.00;;;18.19;49.05
52469;BME280;38381;53.688;10.776;2023-07-02T18:45:09;100368.84;;;18.12;48.90
52469;BME280;38381;53.688;10.776;2023-07-02T18:50:11;100361.91;;;17.79;49.40
52469;BME280;38381;53.688;10.776;2023-07-02T18:55:15;100353.22;;;17.77;49.75
52469;BME280;38381;53.688;10.776;2023-07-02T19:00:15;100349.59;;;17.81;50.27
52469;BME280;38381;53.688;10.776;2023-07-02T19:05:17;100356.16;;;17.68;50.18
52469;BME280;38381;53.688;10.776;2023-07-02T19:10:18;100349.91;;;17.72;50.41
52469;BME280;38381;53.688;10.776;2023-07-02T19:15:18;100362.47;;;17.61;50.12
52469;BME280;38381;53.688;10.776;2023-07-02T19:20:19;100356.34;;;17.60;50.33
52469;BME280;38381;53.688;10.776;2023-07-02T19:25:22;100369.50;;;17.59;50.52
52469;BME280;38381;53.688;10.776;2023-07-02T19:30:22;100373.78;;;17.61;50.74
52469;BME280;38381;53.688;10.776;2023-07-02T19:35:22;100376.53;;;17.58;50.97
52469;BME280;38381;53.688;10.776;2023-07-02T19:40:23;100375.38;;;17.37;51.00
52469;BME280;38381;53.688;10.776;2023-07-02T19:45:26;100382.44;;;17.35;51.11
52469;BME280;38381;53.688;10.776;2023-07-02T19:50:27;100378.97;;;17.33;51.22
52469;BME280;38381;53.688;10.776;2023-07-02T19:55:28;100389.97;;;17.15;52.04
52469;BME280;38381;53.688;10.776;2023-07-02T20:00:28;100392.97;;;16.99;51.97
52469;BME280;38381;53.688;10.776;2023-07-02T20:05:28;100392.94;;;17.01;51.47
52469;BME280;38381;53.688;10.776;2023-07-02T20:10:29;100390.44;;;16.96;51.72
52469;BME280;38381;53.688;10.776;2023-07-02T20:15:29;100390.47;;;16.95;52.08
52469;BME280;38381;53.688;10.776;2023-07-02T20:20:30;100390.44;;;16.96;52.35
52469;BME280;38381;53.688;10.776;2023-07-02T20:25:36;100387.31;;;16.80;52.78
52469;BME280;38381;53.688;10.776;2023-07-02T20:30:36;100392.59;;;16.79;52.67
52469;BME280;38381;53.688;10.776;2023-07-02T20:35:38;100388.34;;;16.73;53.11
52469;BME280;38381;53.688;10.776;2023-07-02T20:40:41;100385.88;;;16.67;53.44
52469;BME280;38381;53.688;10.776;2023-07-02T20:45:41;100385.19;;;16.60;53.47
52469;BME280;38381;53.688;10.776;2023-07-02T20:50:42;100382.72;;;16.54;53.62
52469;BME280;38381;53.688;10.776;2023-07-02T20:55:42;100391.63;;;16.47;54.01
52469;BME280;38381;53.688;10.776;2023-07-02T21:00:43;100387.38;;;16.43;54.59
52469;BME280;38381;53.688;10.776;2023-07-02T21:05:43;100385.31;;;16.18;55.26
52469;BME280;38381;53.688;10.776;2023-07-02T21:10:43;100385.41;;;16.14;55.57
52469;BME280;38381;53.688;10.776;2023-07-02T21:15:55;100383.94;;;16.02;55.74
52469;BME280;38381;53.688;10.776;2023-07-02T21:20:56;100380.69;;;15.91;56.28
52469;BME280;38381;53.688;10.776;2023-07-02T21:25:58;100379.94;;;15.85;56.58
52469;BME280;38381;53.688;10.776;2023-07-02T21:30:59;100379.88;;;15.87;56.44
52469;BME280;38381;53.688;10.776;2023-07-02T21:36:04;100378.16;;;15.87;56.66
52469;BME280;38381;53.688;10.776;2023-07-02T21:41:08;100370.78;;;15.63;56.70
52469;BME280;38381;53.688;10.776;2023-07-02T21:46:10;100378.44;;;15.70;56.48
52469;BME280;38381;53.688;10.776;2023-07-02T21:51:10;100369.91;;;15.62;56.71
52469;BME280;38381;53.688;10.776;2023-07-02T21:56:11;100378.66;;;15.61;56.35
52469;BME280;38381;53.688;10.776;2023-07-02T22:01:11;100377.03;;;15.56;56.34
52469;BME280;38381;53.688;10.776;2023-07-02T22:06:12;100375.38;;;15.52;55.83
52469;BME280;38381;53.688;10.776;2023-07-02T22:11:13;100370.47;;;15.36;56.50
52469;BME280;38381;53.688;10.776;2023-07-02T22:16:14;100370.38;;;15.39;56.43
52469;BME280;38381;53.688;10.776;2023-07-02T22:21:14;100369.69;;;15.29;56.95
52469;BME280;38381;53.688;10.776;2023-07-02T22:26:16;100360.28;;;15.21;57.46
52469;BME280;38381;53.688;10.776;2023-07-02T22:31:17;100353.28;;;15.23;57.29
52469;BME280;38381;53.688;10.776;2023-07-02T22:36:17;100349.19;;;15.09;57.75
52469;BME280;38381;53.688;10.776;2023-07-02T22:41:18;100340.47;;;15.11;57.97
52469;BME280;38381;53.688;10.776;2023-07-02T22:46:18;100339.75;;;15.02;58.67
52469;BME280;38381;53.688;10.776;2023-07-02T22:51:18;100330.25;;;14.98;59.05
52469;BME280;38381;53.688;10.776;2023-07-02T22:56:19;100324.41;;;14.84;59.76
52469;BME280;38381;53.688;10.776;2023-07-02T23:01:20;100311.03;;;15.01;59.58
52469;BME280;38381;53.688;10.776;2023-07-02T23:06:21;100321.03;;;14.79;60.58
52469;BME280;38381;53.688;10.776;2023-07-02T23:11:22;100305.41;;;14.76;60.62
52469;BME280;38381;53.688;10.776;2023-07-02T23:16:22;100299.53;;;14.64;61.49
52469;BME280;38381;53.688;10.776;2023-07-02T23:21:22;100297.34;;;14.88;60.87
52469;BME280;38381;53.688;10.776;2023-07-02T23:26:24;100300.94;;;14.82;61.11
52469;BME280;38381;53.688;10.776;2023-07-02T23:31:27;100296.72;;;14.75;61.58
52469;BME280;38381;53.688;10.776;2023-07-02T23:36:28;100298.78;;;15.04;60.85
52469;BME280;38381;53.688;10.776;2023-07-02T23:41:28;100291.16;;;14.95;61.03
52469;BME280;38381;53.688;10.776;2023-07-02T23:46:29;100288.81;;;14.80;61.69
52469;BME280;38381;53.688;10.776;2023-07-02T23:51:30;100290.19;;;14.99;61.26
52469;BME280;38381;53.688;10.776;2023-07-02T23:56:30;100290.19;;;14.99;61.63
